Time,TemperatureF,DewpointF,PressureIn,WindDirection,WindDirectionDegrees,WindSpeedMPH,WindSpeedGustMPH,Humidity,HourlyPrecipIn,Conditions,Clouds,dailyrainin,SoftwareType,DateUTC
2013-09-22 00:11:00,56.0,52.0,-100.00,SSW,203,3.0,-999.0,88,0.00,,,-99.99,,2013-09-22 07:11:00,
2013-09-22 00:21:00,56.0,52.0,-100.00,SSW,203,3.0,-999.0,88,0.00,,,-99.99,,2013-09-22 07:21:00,
2013-09-22 00:32:00,56.0,52.0,-100.00,SSW,203,3.0,-999.0,88,0.00,,,-99.99,,2013-09-22 07:32:00,
2013-09-22 00:42:00,56.0,52.0,-100.00,SSW,203,3.0,-999.0,88,0.00,,,-99.99,,2013-09-22 07:42:00,
2013-09-22 01:11:00,56.0,53.0,-100.00,SW,236,3.0,-999.0,88,0.00,,,-99.99,,2013-09-22 08:11:00,
2013-09-22 01:22:00,56.0,53.0,-100.00,SW,236,3.0,-999.0,88,0.00,,,-99.99,,2013-09-22 08:22:00,
2013-09-22 01:32:00,56.0,53.0,-100.00,SW,236,3.0,-999.0,88,0.00,,,-99.99,,2013-09-22 08:32:00,
2013-09-22 01:42:00,56.0,53.0,-100.00,SW,236,3.0,-999.0,88,0.00,,,-99.99,,2013-09-22 08:42:00,
2013-09-22 02:11:00,55.0,52.0,-100.00,WNW,284,5.0,-999.0,91,0.00,,,-99.99,,2013-09-22 09:11:00,
2013-09-22 02:21:00,55.0,52.0,-100.00,WNW,284,5.0,-999.0,91,0.00,,,-99.99,,2013-09-22 09:21:00,
2013-09-22 02:33:00,55.0,52.0,-100.00,WNW,284,5.0,-999.0,91,0.00,,,-99.99,,2013-09-22 09:33:00,
2013-09-22 02:43:00,55.0,52.0,-100.00,WNW,284,5.0,-999.0,91,0.00,,,-99.99,,2013-09-22 09:43:00,
2013-09-22 03:12:00,54.0,51.0,-100.00,NE,46,4.0,-999.0,91,0.00,,,-99.99,,2013-09-22 10:12:00,
2013-09-22 03:23:00,54.0,51.0,-100.00,NE,46,4.0,-999.0,91,0.00,,,-99.99,,2013-09-22 10:23:00,
2013-09-22 03:33:00,54.0,51.0,-100.00,NE,46,4.0,-999.0,91,0.00,,,-99.99,,2013-09-22 10:33:00,
2013-09-22 03:44:00,54.0,51.0,-100.00,NE,46,4.0,-999.0,91,0.00,,,-99.99,,2013-09-22 10:44:00,
2013-09-22 04:12:00,54.0,52.0,-100.00,ENE,70,3.0,-999.0,92,0.00,,,-99.99,,2013-09-22 11:12:00,
2013-09-22 04:22:00,54.0,52.0,-100.00,ENE,70,3.0,-999.0,92,0.00,,,-99.99,,2013-09-22 11:22:00,
2013-09-22 04:33:00,54.0,52.0,-100.00,ENE,70,3.0,-999.0,92,0.00,,,-99.99,,2013-09-22 11:33:00,
2013-09-22 04:42:00,54.0,52.0,-100.00,ENE,70,3.0,-999.0,92,0.00,,,-99.99,,2013-09-22 11:42:00,
2013-09-22 05:12:00,53.0,51.0,-100.00,West,260,1.0,-999.0,94,0.00,,,-99.99,,2013-09-22 12:12:00,
2013-09-22 05:22:00,53.0,51.0,-100.00,West,260,1.0,-999.0,94,0.00,,,-99.99,,2013-09-22 12:22:00,
2013-09-22 05:32:00,53.0,51.0,-100.00,West,260,1.0,-999.0,94,0.00,,,-99.99,,2013-09-22 12:32:00,
2013-09-22 05:42:00,53.0,51.0,-100.00,West,260,1.0,-999.0,94,0.00,,,-99.99,,2013-09-22 12:42:00,
2013-09-22 06:12:00,52.0,51.0,-100.00,North,1,1.0,-999.0,96,0.00,,,-99.99,,2013-09-22 13:12:00,
2013-09-22 06:21:00,52.0,51.0,-100.00,North,1,1.0,-999.0,96,0.00,,,-99.99,,2013-09-22 13:21:00,
2013-09-22 06:32:00,52.0,51.0,-100.00,North,1,1.0,-999.0,96,0.00,,,-99.99,,2013-09-22 13:32:00,
2013-09-22 06:42:00,52.0,51.0,-100.00,North,1,1.0,-999.0,96,0.00,,,-99.99,,2013-09-22 13:42:00,
2013-09-22 07:11:00,50.0,49.0,-100.00,North,8,2.0,-999.0,96,0.00,,,-99.99,,2013-09-22 14:11:00,
2013-09-22 07:22:00,50.0,49.0,-100.00,North,8,2.0,-999.0,96,0.00,,,-99.99,,2013-09-22 14:22:00,
2013-09-22 07:32:00,50.0,49.0,-100.00,North,8,2.0,-999.0,96,0.00,,,-99.99,,2013-09-22 14:32:00,
2013-09-22 07:42:00,50.0,49.0,-100.00,North,8,2.0,-999.0,96,0.00,,,-99.99,,2013-09-22 14:42:00,
2013-09-22 08:12:00,51.0,50.0,-100.00,NE,43,4.0,-999.0,96,0.00,,,-99.99,,2013-09-22 15:12:00,
2013-09-22 08:23:00,51.0,50.0,-100.00,NE,43,4.0,-999.0,96,0.00,,,-99.99,,2013-09-22 15:23:00,
2013-09-22 08:34:00,51.0,50.0,-100.00,NE,43,4.0,-999.0,96,0.00,,,-99.99,,2013-09-22 15:34:00,
2013-09-22 08:44:00,51.0,50.0,-100.00,NE,43,4.0,-999.0,96,0.00,,,-99.99,,2013-09-22 15:44:00,
2013-09-22 09:13:00,56.0,54.0,-100.00,NNW,342,1.0,-999.0,93,0.00,,,-99.99,,2013-09-22 16:13:00,
2013-09-22 09:24:00,56.0,54.0,-100.00,NNW,342,1.0,-999.0,93,0.00,,,-99.99,,2013-09-22 16:24:00,
2013-09-22 09:33:00,56.0,54.0,-100.00,NNW,342,1.0,-999.0,93,0.00,,,-99.99,,2013-09-22 16:33:00,
2013-09-22 09:43:00,56.0,54.0,-100.00,NNW,342,1.0,-999.0,93,0.00,,,-99.99,,2013-09-22 16:43:00,
2013-09-22 10:12:00,60.0,54.0,-100.00,SW,220,2.0,-999.0,81,0.00,,,-99.99,,2013-09-22 17:12:00,
2013-09-22 10:23:00,60.0,54.0,-100.00,SW,220,2.0,-999.0,81,0.00,,,-99.99,,2013-09-22 17:23:00,
2013-09-22 10:34:00,60.0,54.0,-100.00,SW,220,2.0,-999.0,81,0.00,,,-99.99,,2013-09-22 17:34:00,
2013-09-22 10:42:00,60.0,54.0,-100.00,SW,220,2.0,-999.0,81,0.00,,,-99.99,,2013-09-22 17:42:00,
2013-09-22 11:13:00,62.0,54.0,-100.00,SSW,195,4.0,-999.0,74,0.00,,,-99.99,,2013-09-22 18:13:00,
2013-09-22 11:22:00,62.0,54.0,-100.00,SSW,195,4.0,-999.0,74,0.00,,,-99.99,,2013-09-22 18:22:00,
2013-09-22 11:32:00,62.0,54.0,-100.00,SSW,195,4.0,-999.0,74,0.00,,,-99.99,,2013-09-22 18:32:00,
2013-09-22 11:42:00,62.0,54.0,-100.00,SSW,195,4.0,-999.0,74,0.00,,,-99.99,,2013-09-22 18:42:00,
2013-09-22 12:11:00,64.0,54.0,-100.00,SW,214,3.0,-999.0,69,0.00,,,-99.99,,2013-09-22 19:11:00,
2013-09-22 12:22:00,64.0,54.0,-100.00,SW,214,3.0,-999.0,69,0.00,,,-99.99,,2013-09-22 19:22:00,
2013-09-22 12:32:00,64.0,54.0,-100.00,SW,214,3.0,-999.0,69,0.00,,,-99.99,,2013-09-22 19:32:00,
2013-09-22 12:42:00,64.0,54.0,-100.00,SW,214,3.0,-999.0,69,0.00,,,-99.99,,2013-09-22 19:42:00,
2013-09-22 13:12:00,67.0,54.0,-100.00,SW,224,4.0,-999.0,62,0.00,,,-99.99,,2013-09-22 20:12:00,
2013-09-22 13:22:00,67.0,54.0,-100.00,SW,224,4.0,-999.0,62,0.00,,,-99.99,,2013-09-22 20:22:00,
2013-09-22 13:33:00,67.0,54.0,-100.00,SW,224,4.0,-999.0,62,0.00,,,-99.99,,2013-09-22 20:33:00,
2013-09-22 13:42:00,67.0,54.0,-100.00,SW,224,4.0,-999.0,62,0.00,,,-99.99,,2013-09-22 20:42:00,
2013-09-22 14:12:00,69.0,54.0,-100.00,SW,236,4.0,-999.0,57,0.00,,,-99.99,,2013-09-22 21:12:00,
2013-09-22 14:23:00,69.0,54.0,-100.00,SW,236,4.0,-999.0,57,0.00,,,-99.99,,2013-09-22 21:23:00,
2013-09-22 14:34:00,69.0,54.0,-100.00,SW,236,4.0,-999.0,57,0.00,,,-99.99,,2013-09-22 21:34:00,
2013-09-22 14:44:00,69.0,54.0,-100.00,SW,236,4.0,-999.0,57,0.00,,,-99.99,,2013-09-22 21:44:00,
2013-09-22 15:14:00,70.0,51.0,-100.00,SSW,193,6.0,-999.0,50,0.00,,,-99.99,,2013-09-22 22:14:00,
2013-09-22 15:24:00,70.0,51.0,-100.00,SSW,193,6.0,-999.0,50,0.00,,,-99.99,,2013-09-22 22:24:00,
2013-09-22 15:34:00,70.0,51.0,-100.00,SSW,193,6.0,-999.0,50,0.00,,,-99.99,,2013-09-22 22:34:00,
2013-09-22 15:43:00,70.0,51.0,-100.00,SSW,193,6.0,-999.0,50,0.00,,,-99.99,,2013-09-22 22:43:00,
2013-09-22 16:12:00,73.0,48.0,-100.00,SSW,208,5.0,-999.0,42,0.00,,,-99.99,,2013-09-22 23:12:00,
2013-09-22 16:22:00,73.0,48.0,-100.00,SSW,208,5.0,-999.0,42,0.00,,,-99.99,,2013-09-22 23:22:00,
2013-09-22 16:34:00,73.0,48.0,-100.00,SSW,208,5.0,-999.0,42,0.00,,,-99.99,,2013-09-22 23:34:00,
2013-09-22 16:42:00,73.0,48.0,-100.00,SSW,208,5.0,-999.0,42,0.00,,,-99.99,,2013-09-22 23:42:00,
2013-09-22 17:23:00,72.0,52.0,-100.00,West,270,12.0,-999.0,49,0.00,,,-99.99,,2013-09-23 00:23:00,
2013-09-22 17:32:00,72.0,52.0,-100.00,West,270,12.0,-999.0,49,0.00,,,-99.99,,2013-09-23 00:32:00,
2013-09-22 17:42:00,72.0,52.0,-100.00,West,270,12.0,-999.0,49,0.00,,,-99.99,,2013-09-23 00:42:00,
2013-09-22 18:12:00,70.0,50.0,-100.00,West,277,15.0,-999.0,48,0.00,,,-99.99,,2013-09-23 01:12:00,
2013-09-22 18:22:00,70.0,50.0,-100.00,West,277,15.0,-999.0,48,0.00,,,-99.99,,2013-09-23 01:22:00,
2013-09-22 18:32:00,70.0,50.0,-100.00,West,277,15.0,-999.0,48,0.00,,,-99.99,,2013-09-23 01:32:00,
2013-09-22 18:42:00,70.0,50.0,-100.00,West,277,15.0,-999.0,48,0.00,,,-99.99,,2013-09-23 01:42:00,
2013-09-22 19:11:00,67.0,53.0,-100.00,West,279,14.0,-999.0,60,0.00,,,-99.99,,2013-09-23 02:11:00,
2013-09-22 19:22:00,67.0,53.0,-100.00,West,279,14.0,-999.0,60,0.00,,,-99.99,,2013-09-23 02:22:00,
2013-09-22 19:32:00,67.0,53.0,-100.00,West,279,14.0,-999.0,60,0.00,,,-99.99,,2013-09-23 02:32:00,
2013-09-22 19:42:00,67.0,53.0,-100.00,West,279,14.0,-999.0,60,0.00,,,-99.99,,2013-09-23 02:42:00,
2013-09-22 20:12:00,64.0,54.0,-100.00,WNW,287,12.0,-999.0,69,0.00,,,-99.99,,2013-09-23 03:12:00,
2013-09-22 20:22:00,64.0,54.0,-100.00,WNW,287,12.0,-999.0,69,0.00,,,-99.99,,2013-09-23 03:22:00,
2013-09-22 20:34:00,64.0,54.0,-100.00,WNW,287,12.0,-999.0,69,0.00,,,-99.99,,2013-09-23 03:34:00,
2013-09-22 20:44:00,64.0,54.0,-100.00,WNW,287,12.0,-999.0,69,0.00,,,-99.99,,2013-09-23 03:44:00,
2013-09-22 21:14:00,62.0,54.0,-100.00,WNW,296,9.0,-999.0,76,0.00,,,-99.99,,2013-09-23 04:14:00,
2013-09-22 21:24:00,62.0,54.0,-100.00,WNW,296,9.0,-999.0,76,0.00,,,-99.99,,2013-09-23 04:24:00,
2013-09-22 21:33:00,62.0,54.0,-100.00,WNW,296,9.0,-999.0,76,0.00,,,-99.99,,2013-09-23 04:33:00,
2013-09-22 21:43:00,62.0,54.0,-100.00,WNW,296,9.0,-999.0,76,0.00,,,-99.99,,2013-09-23 04:43:00,
2013-09-22 23:13:00,60.0,54.0,-100.00,WSW,250,6.0,-999.0,81,0.00,,,-99.99,,2013-09-23 06:13:00,
2013-09-22 23:22:00,60.0,54.0,-100.00,WSW,250,6.0,-999.0,81,0.00,,,-99.99,,2013-09-23 06:22:00,
2013-09-22 23:32:00,60.0,54.0,-100.00,WSW,250,6.0,-999.0,81,0.00,,,-99.99,,2013-09-23 06:32:00,
2013-09-22 23:41:00,60.0,54.0,-100.00,WSW,250,6.0,-999.0,81,0.00,,,-99.99,,2013-09-23 06:41:00,